Time;durP1;ratioP1;P1;durP2;ratioP2;P2;SDS_P1;SDS_P2;PMS_P1;PMS_P2;Temp;Humidity;BMP_temperature;BMP_pressure;BME280_temperature;BME280_humidity;BME280_pressure;Samples;Min_cycle;Max_cycle;Signal;HPM_P1;HPM_P2
2023/09/12 00:01:51;;;;;;;12.73;9.05;;;;;;;20.66;80.47;100368.06;5012096;56;1140543;-72
2023/09/12 00:06:57;;;;;;;9.80;8.80;;;;;;;20.56;81.69;100367.03;5017913;57;1141135;-75
2023/09/12 00:12:02;;;;;;;10.53;8.60;;;;;;;20.54;82.09;100370.41;4995514;57;1138838;-74
2023/09/12 00:17:08;;;;;;;10.30;8.03;;;;;;;20.51;82.26;100368.09;4996056;57;1140752;-75
2023/09/12 00:22:14;;;;;;;11.22;8.33;;;;;;;20.50;82.52;100369.11;4996388;56;1141033;-74
2023/09/12 00:27:19;;;;;;;14.95;9.00;;;;;;;20.49;82.77;100368.78;5045960;56;1140682;-73
2023/09/12 00:32:25;;;;;;;9.08;7.87;;;;;;;20.43;82.61;100368.71;5106555;56;1140773;-74
2023/09/12 00:37:30;;;;;;;8.25;7.37;;;;;;;20.32;82.37;100368.62;5078785;56;1138728;-73
2023/09/12 00:42:36;;;;;;;12.05;8.43;;;;;;;20.21;82.23;100369.92;5106808;56;1138690;-74
2023/09/12 00:47:41;;;;;;;12.60;9.38;;;;;;;20.00;82.41;100371.18;5049884;56;1140919;-74
2023/09/12 00:52:47;;;;;;;9.18;7.95;;;;;;;19.91;83.58;100373.09;5065290;56;1140790;-73
2023/09/12 00:57:54;;;;;;;11.73;8.45;;;;;;;19.87;83.84;100373.13;5119043;57;1138887;-73
2023/09/12 01:03:00;;;;;;;9.50;7.90;;;;;;;19.83;84.13;100369.16;5105793;56;1140754;-72
2023/09/12 01:08:06;;;;;;;10.10;8.48;;;;;;;19.83;84.50;100370.50;5103937;56;1138778;-74
2023/09/12 01:13:16;;;;;;;10.10;7.94;;;;;;;19.81;84.60;100364.98;5047697;57;1140851;-74
2023/09/12 01:18:22;;;;;;;10.78;8.10;;;;;;;19.79;84.71;100373.22;5040647;57;1140734;-74
2023/09/12 01:23:50;;;;;;;12.70;9.03;;;;;;;19.81;85.05;100371.19;5018562;57;1140991;-74
2023/09/12 01:28:58;;;;;;;9.80;7.97;;;;;;;19.76;84.67;100369.55;4997830;56;1140843;-74
2023/09/12 01:34:14;;;;;;;10.80;8.48;;;;;;;19.70;84.57;100369.46;5052949;56;1138869;-72
2023/09/12 01:39:19;;;;;;;10.60;7.97;;;;;;;19.65;84.76;100367.31;5018907;56;1140828;-74
2023/09/12 01:44:26;;;;;;;11.07;7.90;;;;;;;19.54;84.38;100372.61;5092597;56;1140729;-73
2023/09/12 01:49:34;;;;;;;12.28;7.55;;;;;;;19.38;84.28;100367.85;5082161;56;1140745;-73
2023/09/12 01:54:42;;;;;;;12.45;8.65;;;;;;;19.26;85.87;100367.41;5010211;57;1140788;-74
2023/09/12 01:59:48;;;;;;;12.25;8.63;;;;;;;19.26;85.87;100367.41;4996368;56;1140805;-72
2023/09/12 02:05:19;;;;;;;13.40;8.45;;;;;;;19.29;85.43;100373.27;5014096;57;1140995;-73
2023/09/12 02:10:25;;;;;;;16.17;8.47;;;;;;;19.19;84.60;100371.33;5079936;56;1141062;-73
2023/09/12 02:15:30;;;;;;;16.17;8.30;;;;;;;18.97;84.55;100370.80;5079360;56;1141197;-73
2023/09/12 02:20:40;;;;;;;15.80;8.64;;;;;;;18.92;86.10;100372.69;5099114;57;1140947;-74
2023/09/12 02:25:46;;;;;;;13.38;8.35;;;;;;;18.95;86.98;100371.47;5050823;55;1141029;-72
2023/09/12 02:30:51;;;;;;;18.77;9.00;;;;;;;19.01;87.03;100370.78;5037245;56;1140784;-71
2023/09/12 02:35:57;;;;;;;10.93;9.43;;;;;;;19.06;87.14;100374.28;5099111;56;1141017;-74
2023/09/12 02:41:03;;;;;;;16.52;8.50;;;;;;;19.11;87.43;100370.53;5040902;56;1140785;-73
2023/09/12 02:46:08;;;;;;;14.90;8.88;;;;;;;19.10;86.86;100375.06;5096467;55;1140869;-72
2023/09/12 02:51:14;;;;;;;11.97;8.85;;;;;;;19.04;86.63;100378.97;5073091;56;1141371;-74
2023/09/12 02:56:20;;;;;;;8.80;7.90;;;;;;;18.96;86.27;100379.84;4958569;57;1140940;-72
2023/09/12 03:01:28;;;;;;;15.30;8.67;;;;;;;18.71;85.18;100377.81;4939724;57;1138640;-72
2023/09/12 03:06:33;;;;;;;12.43;8.03;;;;;;;18.45;85.82;100378.06;5060877;56;1140705;-73
2023/09/12 03:11:39;;;;;;;14.85;9.83;;;;;;;18.46;87.44;100375.72;5035058;57;1140675;-72
2023/09/12 03:16:45;;;;;;;27.87;10.15;;;;;;;18.46;87.62;100374.88;5015406;56;1141019;-74
2023/09/12 03:21:51;;;;;;;23.60;10.85;;;;;;;18.38;87.61;100374.40;5009679;56;1142572;-72
2023/09/12 03:26:57;;;;;;;16.52;9.50;;;;;;;18.33;88.03;100375.44;4952840;57;1142836;-73
2023/09/12 03:32:03;;;;;;;19.57;10.45;;;;;;;18.30;88.53;100364.23;4988867;57;1140708;-72
2023/09/12 03:37:09;;;;;;;19.82;9.83;;;;;;;18.24;88.10;100369.77;4998638;57;1243268;-73
2023/09/12 03:42:15;;;;;;;14.73;9.88;;;;;;;18.19;88.28;100374.28;4958088;58;1154961;-72
2023/09/12 03:47:20;;;;;;;17.73;10.23;;;;;;;18.15;88.69;100375.66;5010967;56;1141027;-73
2023/09/12 03:52:26;;;;;;;22.47;9.47;;;;;;;18.14;89.24;100375.32;5038020;57;1188448;-73
2023/09/12 03:57:32;;;;;;;16.57;9.33;;;;;;;18.11;89.00;100376.99;5037492;57;1140707;-73
2023/09/12 04:02:37;;;;;;;10.85;9.10;;;;;;;18.09;89.67;100379.50;5031851;57;1140939;-71
2023/09/12 04:07:43;;;;;;;16.50;8.65;;;;;;;18.11;90.16;100372.98;5011022;57;1140892;-74
2023/09/12 04:12:49;;;;;;;24.25;9.60;;;;;;;18.10;89.56;100374.48;5019690;57;1140788;-74
2023/09/12 04:17:54;;;;;;;15.93;10.00;;;;;;;18.01;89.13;100376.36;5037516;57;1140807;-74
2023/09/12 04:23:04;;;;;;;20.73;10.30;;;;;;;17.99;89.58;100372.17;5097964;56;1142857;-73
2023/09/12 04:28:10;;;;;;;56.58;11.70;;;;;;;17.92;89.70;100370.17;5089231;56;1143028;-72
2023/09/12 04:33:16;;;;;;;41.88;14.36;;;;;;;17.89;89.68;100373.17;5040279;56;1152244;-73
2023/09/12 04:38:24;;;;;;;25.60;12.73;;;;;;;17.81;89.82;100369.19;5060252;56;1142894;-73
2023/09/12 04:43:29;;;;;;;18.05;12.82;;;;;;;17.77;90.32;100366.52;5038472;56;1244872;-72
2023/09/12 04:48:35;;;;;;;65.90;15.37;;;;;;;17.75;90.54;100374.37;4998672;56;1238847;-72
2023/09/12 04:53:41;;;;;;;19.25;11.48;;;;;;;17.77;91.22;100371.03;4954187;58;1143098;-71
2023/09/12 04:58:46;;;;;;;25.77;11.93;;;;;;;17.71;91.17;100368.55;4944251;57;1185333;-72
2023/09/12 05:03:52;;;;;;;25.00;10.18;;;;;;;17.65;91.75;100378.56;4989891;57;1221370;-72
2023/09/12 05:08:58;;;;;;;18.60;9.03;;;;;;;17.67;92.57;100374.39;5009820;57;1245977;-73
2023/09/12 05:14:06;;;;;;;11.93;9.65;;;;;;;17.63;93.00;100375.19;4976758;57;1242805;-72
2023/09/12 05:19:12;;;;;;;14.85;10.10;;;;;;;17.62;94.40;100373.52;4956561;57;1245328;-72
2023/09/12 05:24:18;;;;;;;14.16;9.78;;;;;;;17.54;94.85;100370.36;4916409;57;1269976;-72
2023/09/12 05:29:23;;;;;;;13.85;9.40;;;;;;;17.51;96.06;100379.20;4993986;57;1238445;-73
2023/09/12 05:34:29;;;;;;;19.10;10.43;;;;;;;17.58;97.22;100371.67;5017861;57;1236028;-72
2023/09/12 05:39:35;;;;;;;14.40;8.48;;;;;;;17.70;98.20;100367.38;5017504;57;1243378;-73
2023/09/12 05:44:40;;;;;;;23.10;9.73;;;;;;;17.91;99.41;100372.52;5040482;56;1140804;-72
2023/09/12 05:49:46;;;;;;;18.70;10.32;;;;;;;18.27;100.00;100373.44;4989970;56;1244816;-72
2023/09/12 05:54:52;;;;;;;19.27;10.68;;;;;;;18.62;100.00;100365.48;5028336;56;1145029;-72
2023/09/12 05:59:59;;;;;;;18.48;11.40;;;;;;;18.90;100.00;100373.36;5045368;56;1145213;-72
2023/09/12 06:05:06;;;;;;;17.07;12.00;;;;;;;19.21;100.00;100378.70;5024155;56;1223896;-72
2023/09/12 06:10:12;;;;;;;14.75;10.75;;;;;;;19.43;100.00;100378.86;5025457;56;1144992;-72
2023/09/12 06:15:18;;;;;;;23.42;12.68;;;;;;;19.69;100.00;100381.20;5025121;56;1144783;-73
2023/09/12 06:20:23;;;;;;;18.60;11.83;;;;;;;19.99;100.00;100377.06;5098135;56;1144867;-73
2023/09/12 06:25:29;;;;;;;16.33;12.33;;;;;;;20.25;100.00;100377.11;5104251;55;1144986;-72
2023/09/12 06:30:35;;;;;;;16.52;11.20;;;;;;;20.48;100.00;100379.72;5068221;56;1145087;-72
2023/09/12 06:35:40;;;;;;;14.63;11.40;;;;;;;20.72;99.58;100376.73;5054950;56;1145228;-73
2023/09/12 06:40:47;;;;;;;20.90;12.10;;;;;;;20.98;99.53;100375.69;5088263;56;1217755;-73
2023/09/12 06:45:52;;;;;;;25.05;11.30;;;;;;;21.29;99.80;100386.70;5088307;56;1142812;-73
2023/09/12 06:50:58;;;;;;;31.42;11.00;;;;;;;21.60;99.89;100379.64;5035828;57;1143150;-73
2023/09/12 06:56:04;;;;;;;16.27;11.50;;;;;;;21.89;99.34;100384.86;5074749;56;1143132;-72
2023/09/12 07:01:10;;;;;;;23.62;10.98;;;;;;;22.20;99.56;100388.52;5025765;57;1142547;-73
2023/09/12 07:06:16;;;;;;;26.10;11.30;;;;;;;22.55;98.95;100389.35;5010950;57;1142932;-72
2023/09/12 07:11:21;;;;;;;16.78;9.62;;;;;;;22.83;97.65;100381.72;5097858;56;1143260;-72
2023/09/12 07:16:27;;;;;;;15.10;9.57;;;;;;;23.18;97.68;100384.63;5157965;55;1141143;-73
2023/09/12 07:21:34;;;;;;;10.07;9.00;;;;;;;23.49;95.73;100386.24;5019499;57;1140781;-72
2023/09/12 07:26:39;;;;;;;17.20;9.35;;;;;;;23.77;93.94;100388.77;5072292;57;1141071;-72
2023/09/12 07:31:45;;;;;;;15.38;9.33;;;;;;;24.01;90.98;100387.29;5002247;56;1140972;-73
2023/09/12 07:36:57;;;;;;;12.93;9.88;;;;;;;24.28;86.67;100388.66;5022963;57;1140554;-72
2023/09/12 07:41:58;;;;;;;15.53;8.85;;;;;;;24.58;86.60;100391.16;5009766;57;1141059;-73
2023/09/12 07:47:03;;;;;;;9.88;8.03;;;;;;;24.90;84.06;100392.08;4996279;56;1140692;-72
2023/09/12 07:52:09;;;;;;;10.38;7.92;;;;;;;25.33;82.37;100374.68;4991663;57;1138596;-73
2023/09/12 07:57:14;;;;;;;13.58;8.95;;;;;;;25.33;82.37;100374.68;4995874;56;1140746;-73
2023/09/12 08:02:20;;;;;;;20.97;9.70;;;;;;;25.53;83.57;100390.23;5029716;56;1140936;-72
2023/09/12 08:07:26;;;;;;;11.03;8.90;;;;;;;25.49;84.02;100385.50;5010042;56;1140809;-72
2023/09/12 08:12:31;;;;;;;14.25;11.00;;;;;;;25.59;84.62;100385.83;5070061;56;1140990;-73
2023/09/12 08:17:38;;;;;;;14.55;11.08;;;;;;;25.69;81.79;100391.61;5119388;56;1143054;-73
2023/09/12 08:22:43;;;;;;;31.95;10.98;;;;;;;25.72;81.27;100396.59;5139829;56;1142719;-73
2023/09/12 08:27:49;;;;;;;26.33;10.45;;;;;;;25.78;80.12;100396.24;5095147;56;1142892;-72
2023/09/12 08:32:54;;;;;;;18.35;9.00;;;;;;;25.83;79.40;100396.39;5048627;57;1143081;-72
2023/09/12 08:38:00;;;;;;;18.95;9.43;;;;;;;25.99;79.95;100393.64;4995556;57;1140815;-73
2023/09/12 08:43:06;;;;;;;21.25;8.85;;;;;;;26.16;78.32;100392.84;5013373;56;1141042;-73
2023/09/12 08:48:13;;;;;;;9.78;8.13;;;;;;;26.34;77.92;100400.21;5026491;57;1140763;-73
2023/09/12 08:53:22;;;;;;;13.35;9.00;;;;;;;26.58;79.05;100394.44;5066864;57;1138599;-74
2023/09/12 08:58:27;;;;;;;11.65;7.53;;;;;;;26.83;78.47;100391.09;5001365;57;1140996;-73
2023/09/12 09:03:33;;;;;;;12.10;7.58;;;;;;;27.08;75.26;100388.80;5127914;56;1140755;-74
2023/09/12 09:08:40;;;;;;;11.25;7.28;;;;;;;27.29;72.62;100385.05;5023110;57;1140775;-75
2023/09/12 09:13:47;;;;;;;8.35;6.78;;;;;;;27.60;72.29;100385.33;5007385;57;1141581;-76
2023/09/12 09:19:11;;;;;;;9.78;6.67;;;;;;;27.78;68.21;100390.38;5037872;57;1138424;-75
2023/09/12 09:24:19;;;;;;;7.40;6.67;;;;;;;27.90;67.76;100389.86;4963675;57;1138622;-75
2023/09/12 09:29:25;;;;;;;7.37;6.67;;;;;;;28.06;65.68;100388.32;4976596;57;1138785;-73
2023/09/12 09:34:31;;;;;;;8.90;7.90;;;;;;;28.03;65.13;100384.18;5039788;56;1138557;-74
2023/09/12 09:39:37;;;;;;;9.60;7.08;;;;;;;27.98;64.61;100375.36;5019779;56;1138718;-75
2023/09/12 09:44:43;;;;;;;10.03;6.63;;;;;;;28.09;64.13;100371.54;5116268;56;1138988;-73
2023/09/12 09:49:49;;;;;;;11.30;7.62;;;;;;;28.19;61.95;100372.62;5020913;56;1140942;-75
2023/09/12 09:54:55;;;;;;;10.35;7.35;;;;;;;28.23;61.66;100376.53;5055692;56;1140779;-74
2023/09/12 10:00:00;;;;;;;8.15;7.30;;;;;;;28.24;60.18;100376.83;5039418;56;1141202;-75
2023/09/12 10:05:11;;;;;;;9.13;6.42;;;;;;;28.31;60.79;100376.68;5083656;56;1138930;-74
2023/09/12 10:10:19;;;;;;;8.90;6.92;;;;;;;28.46;59.22;100376.18;5013701;56;1138795;-75
2023/09/12 10:15:30;;;;;;;11.78;6.70;;;;;;;28.60;59.06;100370.23;4977267;57;1138931;-76
2023/09/12 10:20:41;;;;;;;;;;;;;;;28.90;55.65;100371.41;5013227;57;1140828;-76
2023/09/12 10:25:48;;;;;;;7.85;6.55;;;;;;;28.96;54.11;100366.89;5001925;57;976122;-73
2023/09/12 10:30:55;;;;;;;8.23;5.97;;;;;;;29.01;56.87;100356.94;5105365;56;1136669;-75
2023/09/12 10:36:04;;;;;;;9.15;6.60;;;;;;;29.32;56.95;100362.94;5060311;56;1139244;-75
2023/09/12 10:41:18;;;;;;;7.05;6.35;;;;;;;29.44;51.78;100365.62;4962629;57;1138906;-76
2023/09/12 10:46:21;;;;;;;6.80;6.17;;;;;;;29.40;48.73;100363.91;4997603;56;1138986;-75
2023/09/12 10:51:26;;;;;;;8.67;5.50;;;;;;;29.57;47.70;100366.66;5109884;56;1138791;-72
2023/09/12 10:56:32;;;;;;;8.15;5.50;;;;;;;29.73;48.94;100362.56;5129762;55;1138829;-76
2023/09/12 11:01:40;;;;;;;9.25;6.78;;;;;;;29.88;50.53;100362.51;5100848;54;1138858;-74
2023/09/12 11:06:46;;;;;;;7.23;5.47;;;;;;;30.03;46.64;100367.69;5056912;55;1140813;-76
2023/09/12 11:12:01;;;;;;;7.12;5.62;;;;;;;29.88;45.86;100359.25;5016258;57;1138540;-73
2023/09/12 11:17:15;;;;;;;9.45;6.33;;;;;;;29.89;45.91;100364.16;4959721;57;1138712;-75
2023/09/12 11:22:31;;;;;;;10.13;6.50;;;;;;;30.05;47.57;100369.63;4958043;56;1138749;-76
2023/09/12 11:27:53;;;;;;;11.07;6.40;;;;;;;30.31;47.52;100361.25;4947011;57;1140919;-76
2023/09/12 11:33:02;;;;;;;7.00;5.83;;;;;;;30.44;47.12;100358.14;4991848;57;1140775;-76
2023/09/12 11:38:11;;;;;;;8.15;6.42;;;;;;;30.48;44.85;100362.56;4994949;57;1138568;-73
2023/09/12 11:43:27;;;;;;;10.10;6.25;;;;;;;30.41;43.35;100355.09;5012195;56;1138715;-75
2023/09/12 11:48:32;;;;;;;8.88;6.25;;;;;;;30.40;43.52;100358.93;5102559;56;1140992;-75
2023/09/12 11:53:38;;;;;;;6.90;6.20;;;;;;;30.54;42.36;100353.91;5130256;56;1138849;-74
2023/09/12 11:58:45;;;;;;;7.22;6.25;;;;;;;30.66;42.87;100356.83;5170710;56;1138489;-75
2023/09/12 12:03:52;;;;;;;21.60;6.60;;;;;;;30.78;40.98;100360.77;5089280;56;1138766;-74
2023/09/12 12:08:57;;;;;;;10.82;6.55;;;;;;;30.78;42.49;100353.41;5113789;56;1140887;-75
2023/09/12 12:14:19;;;;;;;7.35;6.65;;;;;;;30.83;42.11;100350.45;5034107;56;1140866;-74
2023/09/12 12:19:25;;;;;;;15.03;6.97;;;;;;;30.88;42.05;100358.14;4961208;57;1138556;-75
2023/09/12 12:24:40;;;;;;;8.13;6.97;;;;;;;30.95;41.79;100340.20;5021482;57;1140934;-74
2023/09/12 12:29:46;;;;;;;9.58;6.92;;;;;;;31.14;41.47;100354.36;5001752;57;1138871;-72
2023/09/12 12:34:52;;;;;;;8.23;5.92;;;;;;;31.14;40.80;100348.91;5015655;57;1139030;-71
2023/09/12 12:39:58;;;;;;;7.65;6.40;;;;;;;31.16;41.04;100345.37;5015841;57;1138909;-72
2023/09/12 12:45:14;;;;;;;8.43;5.85;;;;;;;31.14;41.08;100342.07;5035171;57;1138837;-70
2023/09/12 12:50:20;;;;;;;6.78;5.70;;;;;;;31.41;41.93;100338.22;4986250;57;1138924;-73
2023/09/12 12:55:28;;;;;;;9.13;6.53;;;;;;;31.54;40.30;100338.31;4926151;57;1139091;-71
2023/09/12 13:00:33;;;;;;;8.98;5.90;;;;;;;31.47;40.04;100326.22;5034667;56;1139113;-72
2023/09/12 13:05:41;;;;;;;8.83;5.35;;;;;;;31.41;38.97;100315.52;4931856;57;1195032;-72
2023/09/12 13:10:46;;;;;;;9.30;5.55;;;;;;;31.28;39.78;100315.97;5035197;56;1138894;-70
2023/09/12 13:15:52;;;;;;;11.28;6.15;;;;;;;31.21;39.74;100305.23;5099289;56;1138931;-73
2023/09/12 13:20:57;;;;;;;7.90;6.17;;;;;;;31.26;39.40;100309.39;5076821;56;1140876;-72
2023/09/12 13:26:03;;;;;;;11.88;6.30;;;;;;;31.10;39.30;100307.06;5078423;56;1138771;-71
2023/09/12 13:31:09;;;;;;;13.25;7.20;;;;;;;30.99;39.87;100307.20;5010204;57;1140943;-74
2023/09/12 13:36:14;;;;;;;10.40;6.15;;;;;;;30.94;40.09;100297.58;5079023;56;1140928;-73
2023/09/12 13:41:22;;;;;;;14.83;6.58;;;;;;;30.90;40.11;100295.91;5078909;57;1140950;-72
2023/09/12 13:46:27;;;;;;;7.40;6.23;;;;;;;30.92;40.40;100298.37;5034972;56;1140934;-73
2023/09/12 13:51:33;;;;;;;6.17;5.58;;;;;;;30.91;40.33;100298.92;5097896;57;1138378;-74
2023/09/12 13:56:38;;;;;;;10.65;6.12;;;;;;;31.01;41.20;100292.75;5078626;56;1138538;-74
2023/09/12 14:01:44;;;;;;;9.13;6.10;;;;;;;31.00;40.68;100288.37;4995361;57;1141001;-73
2023/09/12 14:06:50;;;;;;;12.20;5.37;;;;;;;31.03;41.40;100294.11;5016282;57;1138880;-75
2023/09/12 14:11:55;;;;;;;9.65;6.08;;;;;;;31.00;40.36;100295.20;4991540;57;1140952;-74
2023/09/12 14:17:01;;;;;;;11.90;6.30;;;;;;;31.02;40.31;100303.93;5034640;56;1138774;-74
2023/09/12 14:22:06;;;;;;;8.90;5.97;;;;;;;31.06;40.09;100307.26;5097509;56;1141006;-75
2023/09/12 14:27:12;;;;;;;12.53;5.87;;;;;;;31.15;40.94;100298.10;5028012;56;1138918;-73
2023/09/12 14:32:18;;;;;;;14.93;5.40;;;;;;;31.25;39.51;100301.45;5037328;56;1141014;-72
2023/09/12 14:37:27;;;;;;;8.40;5.53;;;;;;;31.30;38.96;100302.33;5042571;56;1140992;-74
2023/09/12 14:42:31;;;;;;;10.90;6.45;;;;;;;31.40;38.96;100302.94;5098957;56;1138802;-73
2023/09/12 14:47:37;;;;;;;9.30;5.78;;;;;;;31.34;38.44;100300.70;5050885;56;1140707;-75
2023/09/12 14:52:43;;;;;;;10.85;6.80;;;;;;;31.29;38.85;100297.95;4959194;56;1138930;-73
2023/09/12 14:57:54;;;;;;;6.72;5.83;;;;;;;31.23;37.80;100307.72;5043487;56;1140995;-74
2023/09/12 15:02:59;;;;;;;12.00;5.72;;;;;;;31.14;37.20;100307.38;4975983;56;1139031;-75
2023/09/12 15:08:06;;;;;;;7.87;5.62;;;;;;;31.04;38.45;100305.33;5009905;56;1140648;-73
2023/09/12 15:13:14;;;;;;;12.30;6.20;;;;;;;30.98;39.22;100304.19;5028942;56;1138754;-76
2023/09/12 15:18:19;;;;;;;7.72;5.78;;;;;;;30.98;39.22;100304.19;5014765;56;1140833;-77
2023/09/12 15:23:25;;;;;;;10.40;5.92;;;;;;;31.00;38.62;100306.13;5014211;56;1138816;-73
2023/09/12 15:28:31;;;;;;;11.60;5.15;;;;;;;30.99;38.88;100312.66;4984681;57;1140535;-76
2023/09/12 15:33:36;;;;;;;12.93;7.42;;;;;;;30.90;39.69;100305.46;5067878;57;1140966;-75
2023/09/12 15:38:43;;;;;;;8.88;6.22;;;;;;;30.80;40.89;100308.09;5068500;56;1140603;-76
2023/09/12 15:43:49;;;;;;;7.25;6.00;;;;;;;30.72;41.83;100308.54;5021526;56;1138728;-75
2023/09/12 15:48:55;;;;;;;17.00;5.70;;;;;;;30.51;42.91;100296.55;4957177;57;1138868;-74
2023/09/12 15:54:00;;;;;;;15.93;5.13;;;;;;;30.51;42.91;100296.55;4981381;56;1141105;-73
2023/09/12 15:59:06;;;;;;;14.90;7.25;;;;;;;30.59;43.10;100299.39;5107792;56;1140877;-73
2023/09/12 16:04:11;;;;;;;12.20;7.17;;;;;;;30.61;43.48;100291.77;5098998;56;1141181;-74
2023/09/12 16:09:17;;;;;;;24.65;9.45;;;;;;;30.63;45.08;100293.71;5093612;56;1140836;-75
2023/09/12 16:14:22;;;;;;;23.50;7.73;;;;;;;30.59;45.94;100295.30;5097898;56;1140988;-74
2023/09/12 16:19:28;;;;;;;55.05;9.03;;;;;;;30.51;46.36;100296.55;5118744;56;1140790;-74
2023/09/12 16:24:34;;;;;;;73.70;10.10;;;;;;;30.39;48.10;100294.51;5098675;56;1141009;-75
2023/09/12 16:29:39;;;;;;;45.30;9.38;;;;;;;30.24;49.58;100298.41;5144255;56;1142632;-74
2023/09/12 16:34:45;;;;;;;13.85;7.75;;;;;;;30.02;51.08;100294.30;5116016;55;1140863;-75
2023/09/12 16:39:50;;;;;;;31.97;9.50;;;;;;;29.87;52.09;100289.96;5098669;56;1140915;-74
2023/09/12 16:44:59;;;;;;;39.17;11.73;;;;;;;29.75;53.18;100292.80;5098827;56;1141058;-73
2023/09/12 16:50:03;;;;;;;58.90;14.75;;;;;;;29.70;53.86;100301.72;5118342;56;1142873;-75
2023/09/12 16:55:10;;;;;;;60.38;12.73;;;;;;;29.59;54.46;100297.20;5188342;55;1142789;-74
2023/09/12 17:00:16;;;;;;;52.13;14.58;;;;;;;29.44;55.04;100301.05;5179624;55;1143010;-76
2023/09/12 17:05:24;;;;;;;44.73;13.57;;;;;;;29.30;56.13;100299.69;5065916;56;1143285;-76
2023/09/12 17:10:29;;;;;;;50.58;14.93;;;;;;;29.09;56.68;100301.77;5089948;56;1142860;-76
2023/09/12 17:15:37;;;;;;;50.38;15.15;;;;;;;28.90;57.35;100288.89;5082610;56;1142971;-76
2023/09/12 17:20:43;;;;;;;57.23;14.40;;;;;;;28.72;58.28;100297.27;5063211;56;1143116;-74
2023/09/12 17:25:49;;;;;;;39.23;15.43;;;;;;;28.47;58.59;100287.52;5134939;56;1142863;-76
2023/09/12 17:30:54;;;;;;;37.17;14.63;;;;;;;28.24;59.14;100287.60;5149534;56;1143140;-74
2023/09/12 17:36:00;;;;;;;49.40;15.63;;;;;;;27.92;60.29;100295.30;5059319;56;1142848;-73
2023/09/12 17:41:05;;;;;;;52.62;13.80;;;;;;;27.66;61.66;100294.70;5034537;57;1142895;-73
2023/09/12 17:46:11;;;;;;;66.47;14.38;;;;;;;27.47;63.29;100296.40;4993110;57;1143118;-74
2023/09/12 17:51:16;;;;;;;50.98;12.30;;;;;;;27.42;64.71;100303.89;5040981;56;1143139;-76
2023/09/12 17:56:22;;;;;;;60.92;12.68;;;;;;;27.30;65.22;100298.44;5107602;55;1142724;-75
2023/09/12 18:01:28;;;;;;;40.78;10.45;;;;;;;27.19;66.04;100299.78;5101291;56;1142786;-76
2023/09/12 18:06:34;;;;;;;21.97;10.15;;;;;;;27.06;66.73;100304.03;5022448;57;1142669;-76
2023/09/12 18:11:40;;;;;;;21.00;12.80;;;;;;;26.95;67.07;100307.85;4982064;56;1142971;-73
2023/09/12 18:16:46;;;;;;;29.52;14.30;;;;;;;26.89;67.11;100308.73;5033173;56;1143496;-74
2023/09/12 18:21:52;;;;;;;31.25;13.15;;;;;;;26.76;66.64;100316.23;4949116;57;1142975;-74
2023/09/12 18:26:57;;;;;;;40.40;14.87;;;;;;;26.63;66.66;100325.38;5001915;56;1142796;-74
2023/09/12 18:32:03;;;;;;;38.10;20.00;;;;;;;26.54;67.21;100321.34;5030651;57;1142822;-73
2023/09/12 18:37:09;;;;;;;33.40;19.12;;;;;;;26.45;67.44;100326.75;4994834;56;1143156;-74
2023/09/12 18:42:14;;;;;;;33.02;18.65;;;;;;;26.38;67.96;100331.45;4999349;57;1142905;-73
2023/09/12 18:47:20;;;;;;;36.45;15.18;;;;;;;26.30;68.44;100335.80;5008641;55;1143144;-74
2023/09/12 18:52:25;;;;;;;18.85;14.93;;;;;;;26.16;68.75;100337.80;5028419;56;1142826;-75
2023/09/12 18:57:31;;;;;;;21.75;13.93;;;;;;;25.88;70.15;100326.94;4979380;56;1142883;-73
2023/09/12 19:02:37;;;;;;;25.12;13.90;;;;;;;25.88;70.15;100326.94;4910779;58;1143250;-72
2023/09/12 19:07:42;;;;;;;32.17;15.70;;;;;;;25.81;70.54;100328.07;5015488;57;1143041;-72
2023/09/12 19:12:49;;;;;;;36.63;18.37;;;;;;;25.71;71.29;100338.56;4995668;57;1143226;-71
2023/09/12 19:17:54;;;;;;;37.42;18.80;;;;;;;25.52;71.46;100334.41;4977160;56;1142824;-71
2023/09/12 19:23:01;;;;;;;24.35;16.48;;;;;;;25.42;72.24;100330.03;5118653;56;1143009;-73
2023/09/12 19:28:08;;;;;;;27.40;15.95;;;;;;;25.27;72.42;100333.58;5097879;56;1142924;-72
2023/09/12 19:33:14;;;;;;;29.45;17.73;;;;;;;25.10;72.72;100325.16;5048778;56;1142887;-73
2023/09/12 19:38:19;;;;;;;20.52;14.63;;;;;;;24.99;73.08;100322.32;4997405;57;1143099;-72
2023/09/12 19:43:25;;;;;;;24.02;15.98;;;;;;;24.91;73.45;100322.02;5058684;56;1142878;-72
2023/09/12 19:48:31;;;;;;;20.82;13.85;;;;;;;24.76;73.56;100318.24;5005914;56;1142849;-74
2023/09/12 19:53:37;;;;;;;24.55;12.13;;;;;;;24.63;73.97;100318.31;5065887;56;1142883;-75
2023/09/12 19:58:42;;;;;;;12.95;11.57;;;;;;;24.57;74.43;100317.84;5027513;56;1143042;-75
2023/09/12 20:03:48;;;;;;;16.93;12.70;;;;;;;24.48;74.67;100315.89;5056181;56;1142962;-76
2023/09/12 20:08:54;;;;;;;19.80;14.77;;;;;;;24.47;75.09;100318.28;5185138;55;1143015;-74
2023/09/12 20:14:00;;;;;;;24.20;14.35;;;;;;;24.45;74.87;100323.06;5118790;56;1143129;-75
2023/09/12 20:19:07;;;;;;;16.00;11.65;;;;;;;24.30;74.83;100327.91;5093692;56;1142945;-75
2023/09/12 20:24:13;;;;;;;13.88;11.80;;;;;;;24.22;75.28;100324.59;5078511;56;1142807;-75
2023/09/12 20:29:19;;;;;;;13.48;10.08;;;;;;;24.18;75.27;100328.23;5053545;57;1142973;-75
2023/09/12 20:34:24;;;;;;;18.27;12.28;;;;;;;23.86;73.89;100328.61;5039291;56;1143183;-76
2023/09/12 20:39:32;;;;;;;15.50;11.12;;;;;;;23.74;75.56;100322.19;5008311;56;1143070;-74
2023/09/12 20:44:38;;;;;;;14.50;9.98;;;;;;;23.63;75.73;100322.83;4996177;57;1143039;-75
2023/09/12 20:49:48;;;;;;;15.95;11.60;;;;;;;23.57;75.92;100320.43;5015867;57;1140881;-75
2023/09/12 20:54:51;;;;;;;15.03;12.15;;;;;;;23.45;76.01;100321.55;4995227;57;1142885;-76
2023/09/12 20:59:56;;;;;;;22.50;13.57;;;;;;;23.34;75.79;100321.34;4995136;57;1143269;-74
2023/09/12 21:05:03;;;;;;;17.17;12.80;;;;;;;23.23;76.89;100327.33;5015908;57;1143185;-76
2023/09/12 21:10:10;;;;;;;20.52;14.43;;;;;;;23.23;78.09;100331.38;4995913;57;1143178;-74
2023/09/12 21:15:15;;;;;;;15.88;13.20;;;;;;;23.23;78.09;100331.38;4996091;57;1143144;-75
2023/09/12 21:20:21;;;;;;;15.78;12.03;;;;;;;23.13;77.79;100324.53;5067864;56;1142915;-75
2023/09/12 21:25:26;;;;;;;17.90;13.35;;;;;;;23.02;77.91;100323.80;5098380;56;1143197;-75
2023/09/12 21:30:32;;;;;;;15.08;12.75;;;;;;;22.93;78.00;100330.39;5078261;56;1143151;-74
2023/09/12 21:35:38;;;;;;;14.03;12.58;;;;;;;22.83;78.39;100323.22;5065038;56;1143064;-74
2023/09/12 21:40:43;;;;;;;18.85;12.90;;;;;;;22.78;78.88;100325.69;5015704;57;1143314;-75
2023/09/12 21:45:50;;;;;;;16.70;11.97;;;;;;;22.79;79.19;100321.44;5011089;57;1142985;-76
2023/09/12 21:50:55;;;;;;;18.20;12.53;;;;;;;22.77;79.21;100325.37;4995779;57;1142919;-75
2023/09/12 21:56:01;;;;;;;18.13;12.07;;;;;;;22.72;79.28;100318.39;5016154;57;1143083;-74
2023/09/12 22:01:06;;;;;;;17.65;12.73;;;;;;;22.68;79.50;100323.88;4996701;57;1142882;-76
2023/09/12 22:06:12;;;;;;;14.73;11.45;;;;;;;22.64;79.57;100323.95;4997024;57;1143197;-74
2023/09/12 22:11:18;;;;;;;13.53;11.60;;;;;;;22.58;79.68;100322.08;4996521;57;1143367;-75
2023/09/12 22:16:23;;;;;;;13.72;11.90;;;;;;;22.54;80.08;100323.00;5085008;56;1143121;-75
2023/09/12 22:21:29;;;;;;;21.45;11.45;;;;;;;22.44;80.13;100327.42;5079468;56;1143194;-75
2023/09/12 22:26:34;;;;;;;15.63;11.50;;;;;;;22.35;80.20;100321.87;5079365;56;1143043;-75
2023/09/12 22:31:40;;;;;;;17.87;10.60;;;;;;;22.26;80.53;100313.65;5098201;56;1143038;-74
2023/09/12 22:36:45;;;;;;;16.00;11.65;;;;;;;22.14;80.57;100304.98;4996232;56;1142948;-75
2023/09/12 22:41:51;;;;;;;14.15;12.07;;;;;;;22.08;81.46;100320.08;4980061;57;1143008;-76
2023/09/12 22:46:57;;;;;;;14.10;11.43;;;;;;;22.05;82.21;100312.38;5053642;56;1142933;-75
2023/09/12 22:52:03;;;;;;;16.97;11.57;;;;;;;21.97;82.46;100315.22;4946810;56;1143008;-76